Rylan Jade — WDI4904 — position and weather

sailwx.info

Track history (hours):
 
Tides and Currents Weather Stations Pressure Air Temp Water Temp Dewpoint Dewpoint Depression Visibility Wind Speed Wind Dir Waves Ship Positions

Rylan Jade

Owner: Marine Express, Inc. - Rylan Jade, Walnut Creek, CA. More information available from US FCC via Universal Licensing System and Coast Guard Vessel Documentation Center.

Last reported at 2018-Feb-21 23:50 UTC. Time now 2018-Feb-24 03:55 UTC.
Position N 33°46' W 118°13'.

; draft 1 m.

Type: Port tender. MMSI: 367067090.

Date/timePositionNaut miles runAvg speedWind from/ knotsBaromVisibWave heightAir tempDewpointWater temp
2018-Feb-21 23:50N 33°46' W 118°13'2 6.2
2018-Feb-21 23:31N 33°44' W 118°12'5 8.8
2018-Feb-21 22:58N 33°42' W 118°07'0 0.4
2018-Feb-21 21:52N 33°42' W 118°08'410.8
2018-Feb-21 21:31N 33°44' W 118°12'3 5.2
2018-Feb-21 21:01N 33°46' W 118°13'1 1.0
2018-Feb-21 20:30N 33°46' W 118°13'0 0.0
2018-Feb-21 20:01N 33°46' W 118°13'0 0.0
2018-Feb-20 17:17N 33°46' W 118°13'2 6.0
2018-Feb-20 17:00N 33°44' W 118°13'612.8
2018-Feb-20 16:30N 33°41' W 118°06'0 0.0
2018-Feb-20 16:00N 33°41' W 118°06'510.9
2018-Feb-20 15:30N 33°44' W 118°12'3 5.4
2018-Feb-20 15:00N 33°46' W 118°13'  
2018-Feb-17 06:05N 33°44' W 118°12'2 4.2
2018-Feb-17 05:36N 33°46' W 118°13'0 4.9
2018-Feb-17 05:30N 33°46' W 118°13'1 0.1
2018-Feb-17 00:03N 33°46' W 118°13'0 0.0
2018-Feb-17 00:00N 33°46' W 118°13'1 2.8
2018-Feb-16 23:31N 33°45' W 118°13'3 5.7
2018-Feb-16 23:00N 33°44' W 118°10'0 0.0
2018-Feb-16 22:30N 33°44' W 118°10'3 6.2
2018-Feb-16 22:00N 33°45' W 118°13'1 1.8
2018-Feb-16 21:30N 33°46' W 118°13'0 0.0
2018-Feb-15 20:53N 33°46' W 118°13'3 7.5
2018-Feb-15 20:30N 33°43' W 118°14'2 4.1
2018-Feb-15 20:00N 33°44' W 118°16'3 5.3
2018-Feb-15 19:30N 33°45' W 118°13'0 0.0
2018-Feb-13 20:43N 33°44' W 118°13'211.4
2018-Feb-13 20:30N 33°43' W 118°15'1 1.9
2018-Feb-13 20:00N 33°44' W 118°15'0 0.0
2018-Feb-13 19:31N 33°44' W 118°15'0 0.0
2018-Feb-13 19:01N 33°44' W 118°15'0 0.0
2018-Feb-13 18:31N 33°44' W 118°15'0 0.0
2018-Feb-13 18:00N 33°44' W 118°15'0 0.0
2018-Feb-13 17:31N 33°44' W 118°15'0 0.0
2018-Feb-13 17:01N 33°44' W 118°15'2 4.8
2018-Feb-13 16:30N 33°45' W 118°13'1 2.0
2018-Feb-13 16:01N 33°46' W 118°13'0 0.0
2018-Feb-13 15:27N 33°46' W 118°13'1 3.1
2018-Feb-13 15:00N 33°45' W 118°13'1 0.1
2018-Feb-13 01:18N 33°46' W 118°13'2 6.4
2018-Feb-13 01:00N 33°44' W 118°12'2 4.0
2018-Feb-13 00:30N 33°44' W 118°10'0 0.2
2018-Feb-13 00:00N 33°44' W 118°10'2 4.8
2018-Feb-12 23:30N 33°45' W 118°13'1 0.3
2018-Feb-12 18:09N 33°46' W 118°13'1 4.5
2018-Feb-12 18:01N 33°46' W 118°13'1 2.5
2018-Feb-12 17:30N 33°46' W 118°12'2 3.6
2018-Feb-12 16:52N 33°43' W 118°11'1 1.5
2018-Feb-12 16:30N 33°43' W 118°11'0 0.7
2018-Feb-12 16:00N 33°43' W 118°12'3 5.5
2018-Feb-12 15:30N 33°46' W 118°12'1 2.8
2018-Feb-12 15:01N 33°46' W 118°13'0 0.4
2018-Feb-12 14:30N 33°46' W 118°13'0 0.0
2018-Feb-12 09:31N 33°46' W 118°13'0 9.4
2018-Feb-12 09:30N 33°46' W 118°13'2 1.0
2018-Feb-12 07:08N 33°44' W 118°13'2 7.5
2018-Feb-12 06:53N 33°46' W 118°13'1 0.7
2018-Feb-12 05:50N 33°46' W 118°13'3 6.3
2018-Feb-12 05:21N 33°43' W 118°14'0 0.1
2018-Feb-12 05:00N 33°43' W 118°14'0 0.0
2018-Feb-12 04:30N 33°43' W 118°14'3 1.1
2018-Feb-12 01:49N 33°46' W 118°13'2 5.7
2018-Feb-12 01:30N 33°44' W 118°13'1 2.4
2018-Feb-12 01:01N 33°43' W 118°13'0 0.0
2018-Feb-12 00:30N 33°43' W 118°13'3 5.2
2018-Feb-12 00:00N 33°46' W 118°13'  
Track history (hours):
 
Tides and Currents Weather Stations Pressure Air Temp Water Temp Dewpoint Dewpoint Depression Visibility Wind Speed Wind Dir Waves Ship Positions

Rylan Jade

Owner: Marine Express, Inc. - Rylan Jade, Walnut Creek, CA. More information available from US FCC via Universal Licensing System and Coast Guard Vessel Documentation Center.

Last reported at 2018-Feb-21 23:50 UTC. Time now 2018-Feb-24 03:55 UTC.
Position N 33°46' W 118°13'.

; draft 1 m.

Type: Port tender. MMSI: 367067090.

Date/timePositionNaut miles runAvg speedWind from/ knotsBaromVisibWave heightAir tempDewpointWater temp
2018-Feb-21 23:50N 33°46' W 118°13'2 6.2
2018-Feb-21 23:31N 33°44' W 118°12'5 8.8
2018-Feb-21 22:58N 33°42' W 118°07'0 0.4
2018-Feb-21 21:52N 33°42' W 118°08'410.8
2018-Feb-21 21:31N 33°44' W 118°12'3 5.2
2018-Feb-21 21:01N 33°46' W 118°13'1 1.0
2018-Feb-21 20:30N 33°46' W 118°13'0 0.0
2018-Feb-21 20:01N 33°46' W 118°13'0 0.0
2018-Feb-20 17:17N 33°46' W 118°13'2 6.0
2018-Feb-20 17:00N 33°44' W 118°13'612.8
2018-Feb-20 16:30N 33°41' W 118°06'0 0.0
2018-Feb-20 16:00N 33°41' W 118°06'510.9
2018-Feb-20 15:30N 33°44' W 118°12'3 5.4
2018-Feb-20 15:00N 33°46' W 118°13'  
2018-Feb-17 06:05N 33°44' W 118°12'2 4.2
2018-Feb-17 05:36N 33°46' W 118°13'0 4.9
2018-Feb-17 05:30N 33°46' W 118°13'1 0.1
2018-Feb-17 00:03N 33°46' W 118°13'0 0.0
2018-Feb-17 00:00N 33°46' W 118°13'1 2.8
2018-Feb-16 23:31N 33°45' W 118°13'3 5.7
2018-Feb-16 23:00N 33°44' W 118°10'0 0.0
2018-Feb-16 22:30N 33°44' W 118°10'3 6.2
2018-Feb-16 22:00N 33°45' W 118°13'1 1.8
2018-Feb-16 21:30N 33°46' W 118°13'0 0.0
2018-Feb-15 20:53N 33°46' W 118°13'3 7.5
2018-Feb-15 20:30N 33°43' W 118°14'2 4.1
2018-Feb-15 20:00N 33°44' W 118°16'3 5.3
2018-Feb-15 19:30N 33°45' W 118°13'0 0.0
2018-Feb-13 20:43N 33°44' W 118°13'211.4
2018-Feb-13 20:30N 33°43' W 118°15'1 1.9
2018-Feb-13 20:00N 33°44' W 118°15'0 0.0
2018-Feb-13 19:31N 33°44' W 118°15'0 0.0
2018-Feb-13 19:01N 33°44' W 118°15'0 0.0
2018-Feb-13 18:31N 33°44' W 118°15'0 0.0
2018-Feb-13 18:00N 33°44' W 118°15'0 0.0
2018-Feb-13 17:31N 33°44' W 118°15'0 0.0
2018-Feb-13 17:01N 33°44' W 118°15'2 4.8
2018-Feb-13 16:30N 33°45' W 118°13'1 2.0
2018-Feb-13 16:01N 33°46' W 118°13'0 0.0
2018-Feb-13 15:27N 33°46' W 118°13'1 3.1
2018-Feb-13 15:00N 33°45' W 118°13'1 0.1
2018-Feb-13 01:18N 33°46' W 118°13'2 6.4
2018-Feb-13 01:00N 33°44' W 118°12'2 4.0
2018-Feb-13 00:30N 33°44' W 118°10'0 0.2
2018-Feb-13 00:00N 33°44' W 118°10'2 4.8
2018-Feb-12 23:30N 33°45' W 118°13'1 0.3
2018-Feb-12 18:09N 33°46' W 118°13'1 4.5
2018-Feb-12 18:01N 33°46' W 118°13'1 2.5
2018-Feb-12 17:30N 33°46' W 118°12'2 3.6
2018-Feb-12 16:52N 33°43' W 118°11'1 1.5
2018-Feb-12 16:30N 33°43' W 118°11'0 0.7
2018-Feb-12 16:00N 33°43' W 118°12'3 5.5
2018-Feb-12 15:30N 33°46' W 118°12'1 2.8
2018-Feb-12 15:01N 33°46' W 118°13'0 0.4
2018-Feb-12 14:30N 33°46' W 118°13'0 0.0
2018-Feb-12 09:31N 33°46' W 118°13'0 9.4
2018-Feb-12 09:30N 33°46' W 118°13'2 1.0
2018-Feb-12 07:08N 33°44' W 118°13'2 7.5
2018-Feb-12 06:53N 33°46' W 118°13'1 0.7
2018-Feb-12 05:50N 33°46' W 118°13'3 6.3
2018-Feb-12 05:21N 33°43' W 118°14'0 0.1
2018-Feb-12 05:00N 33°43' W 118°14'0 0.0
2018-Feb-12 04:30N 33°43' W 118°14'3 1.1
2018-Feb-12 01:49N 33°46' W 118°13'2 5.7
2018-Feb-12 01:30N 33°44' W 118°13'1 2.4
2018-Feb-12 01:01N 33°43' W 118°13'0 0.0
2018-Feb-12 00:30N 33°43' W 118°13'3 5.2
2018-Feb-12 00:00N 33°46' W 118°13'  

Dump ship's entire track history